Time;durP1;ratioP1;P1;durP2;ratioP2;P2;SDS_P1;SDS_P2;PMS_P1;PMS_P2;Temp;Humidity;BMP_temperature;BMP_pressure;BME280_temperature;BME280_humidity;BME280_pressure;Samples;Min_cycle;Max_cycle;Signal;HPM_P1;HPM_P2
2021/10/07 00:00:13;;;;;;;2.50;2.30;;;;;;;;;;5093203;28;20206;-78
2021/10/07 00:02:40;;;;;;;3.67;2.60;;;;;;;;;;5093250;28;20665;-78
2021/10/07 00:05:10;;;;;;;3.63;2.50;;;;;;;;;;5092970;28;20207;-78
2021/10/07 00:07:37;;;;;;;4.23;1.90;;;;;;;;;;5093578;28;20280;-78
2021/10/07 00:10:05;;;;;;;4.87;2.33;;;;;;;;;;5092737;28;20603;-78
2021/10/07 00:12:34;;;;;;;2.13;1.93;;;;;;;;;;5093233;28;20617;-78
2021/10/07 00:15:02;;;;;;;6.53;2.20;;;;;;;;;;5092749;28;20295;-78
2021/10/07 00:17:29;;;;;;;7.17;2.80;;;;;;;;;;5092976;28;20192;-78
2021/10/07 00:19:56;;;;;;;3.77;2.03;;;;;;;;;;5092811;28;20199;-79
2021/10/07 00:22:23;;;;;;;3.07;1.90;;;;;;;;;;5093184;28;20208;-78
2021/10/07 00:24:50;;;;;;;3.10;1.93;;;;;;;;;;5092561;28;20287;-78
2021/10/07 00:27:18;;;;;;;5.70;2.43;;;;;;;;;;5092892;28;20293;-78
2021/10/07 00:29:49;;;;;;;4.43;2.23;;;;;;;;;;5092507;28;20287;-78
2021/10/07 00:32:19;;;;;;;2.30;2.10;;;;;;;;;;5092718;28;20188;-78
2021/10/07 00:40:17;;;;;;;3.87;2.03;;;;;;;;;;5089541;28;20273;-78
2021/10/07 00:42:44;;;;;;;3.27;2.33;;;;;;;;;;5092130;28;20227;-78
2021/10/07 00:45:13;;;;;;;3.03;2.07;;;;;;;;;;5084021;28;20287;-77
2021/10/07 00:47:40;;;;;;;2.90;1.93;;;;;;;;;;5083344;28;20222;-78
2021/10/07 00:50:08;;;;;;;2.53;1.80;;;;;;;;;;5091973;28;20224;-79
2021/10/07 00:52:35;;;;;;;5.67;2.20;;;;;;;;;;5091687;28;20200;-80
2021/10/07 00:55:03;;;;;;;3.30;2.00;;;;;;;;;;5091509;28;20210;-79
2021/10/07 00:57:31;;;;;;;7.00;2.30;;;;;;;;;;5092244;28;20283;-79
2021/10/07 00:59:58;;;;;;;5.97;2.80;;;;;;;;;;5091371;28;20279;-79
2021/10/07 01:02:26;;;;;;;4.83;1.93;;;;;;;;;;5092393;28;20193;-79
2021/10/07 01:04:54;;;;;;;2.87;2.13;;;;;;;;;;5085333;28;20204;-78
2021/10/07 01:07:22;;;;;;;6.23;2.33;;;;;;;;;;5083407;28;20203;-79
2021/10/07 01:09:49;;;;;;;3.33;1.83;;;;;;;;;;5091785;28;20283;-79
2021/10/07 01:12:16;;;;;;;4.03;2.30;;;;;;;;;;5091777;28;20286;-79
2021/10/07 01:14:47;;;;;;;4.57;2.10;;;;;;;;;;5091586;28;20204;-79
2021/10/07 01:17:15;;;;;;;5.70;2.23;;;;;;;;;;5091781;28;20708;-79
2021/10/07 01:19:45;;;;;;;3.47;2.00;;;;;;;;;;5091772;28;20204;-79
2021/10/07 01:22:12;;;;;;;2.80;2.10;;;;;;;;;;5091685;28;20188;-79
2021/10/07 01:24:39;;;;;;;4.17;2.60;;;;;;;;;;5091586;28;20227;-79
2021/10/07 01:27:07;;;;;;;4.27;2.10;;;;;;;;;;5091785;28;20236;-79
2021/10/07 01:29:34;;;;;;;4.93;2.57;;;;;;;;;;5091376;28;20294;-79
2021/10/07 01:32:03;;;;;;;2.60;2.00;;;;;;;;;;5091588;28;20310;-79
2021/10/07 01:34:31;;;;;;;6.50;2.50;;;;;;;;;;5091365;28;20202;-79
2021/10/07 01:37:00;;;;;;;3.93;2.33;;;;;;;;;;5091775;28;20242;-78
2021/10/07 01:39:27;;;;;;;3.10;2.10;;;;;;;;;;5091259;28;20203;-79
2021/10/07 01:41:55;;;;;;;4.93;2.60;;;;;;;;;;5091862;28;20202;-79
2021/10/07 01:44:24;;;;;;;5.57;2.50;;;;;;;;;;5091273;28;20243;-79
2021/10/07 01:46:52;;;;;;;3.23;2.33;;;;;;;;;;5091051;28;20612;-79
2021/10/07 01:49:19;;;;;;;6.13;2.30;;;;;;;;;;5091410;28;20231;-79
2021/10/07 01:51:46;;;;;;;4.07;3.07;;;;;;;;;;5087152;28;20228;-79
2021/10/07 01:54:15;;;;;;;4.10;2.27;;;;;;;;;;5091033;28;20189;-80
2021/10/07 01:56:43;;;;;;;5.73;2.57;;;;;;;;;;5091305;28;20684;-80
2021/10/07 01:59:10;;;;;;;7.27;2.47;;;;;;;;;;5090859;28;20203;-80
2021/10/07 02:01:37;;;;;;;4.90;2.23;;;;;;;;;;5091267;28;20196;-80
2021/10/07 02:04:05;;;;;;;4.83;2.67;;;;;;;;;;5090881;28;20196;-80
2021/10/07 02:06:32;;;;;;;3.67;2.20;;;;;;;;;;5091761;28;20200;-80
2021/10/07 02:09:00;;;;;;;2.97;2.17;;;;;;;;;;5091300;28;20207;-80
2021/10/07 02:11:28;;;;;;;2.60;2.40;;;;;;;;;;5091916;28;20220;-80
2021/10/07 02:13:56;;;;;;;5.93;2.33;;;;;;;;;;5094777;28;20200;-79
2021/10/07 02:16:23;;;;;;;3.60;2.33;;;;;;;;;;5095257;28;20196;-80
2021/10/07 02:18:50;;;;;;;5.90;2.47;;;;;;;;;;5095034;28;20200;-80
2021/10/07 02:21:18;;;;;;;3.33;2.17;;;;;;;;;;5094730;28;20197;-80
2021/10/07 02:23:45;;;;;;;3.90;2.30;;;;;;;;;;5095027;28;20269;-80
2021/10/07 02:26:12;;;;;;;3.07;2.30;;;;;;;;;;5094577;28;20196;-79
2021/10/07 02:28:41;;;;;;;5.53;2.50;;;;;;;;;;5094899;28;20197;-80
2021/10/07 02:31:09;;;;;;;3.43;2.53;;;;;;;;;;5094452;28;20224;-80
2021/10/07 02:33:36;;;;;;;6.77;3.30;;;;;;;;;;5094764;28;20200;-80
2021/10/07 02:36:04;;;;;;;3.40;3.10;;;;;;;;;;5094489;28;20198;-81
2021/10/07 02:38:31;;;;;;;3.37;2.90;;;;;;;;;;5095172;28;20196;-81
2021/10/07 02:40:59;;;;;;;5.33;3.67;;;;;;;;;;5094214;28;20193;-82
2021/10/07 02:43:27;;;;;;;8.57;3.17;;;;;;;;;;5094320;28;20224;-81
2021/10/07 02:45:56;;;;;;;5.63;2.67;;;;;;;;;;5094338;28;20204;-81
2021/10/07 02:48:23;;;;;;;4.33;2.57;;;;;;;;;;5094616;28;20664;-82
2021/10/07 02:50:50;;;;;;;43.50;27.57;;;;;;;;;;5094129;28;20220;-81
2021/10/07 02:53:18;;;;;;;266.10;169.40;;;;;;;;;;5094567;28;20196;-81
2021/10/07 02:55:45;;;;;;;22.53;14.63;;;;;;;;;;5094356;28;20207;-81
2021/10/07 02:58:12;;;;;;;6.93;3.80;;;;;;;;;;5094192;28;20196;-81
2021/10/07 03:00:40;;;;;;;3.50;2.70;;;;;;;;;;5094537;28;20226;-81
2021/10/07 03:03:09;;;;;;;4.80;2.40;;;;;;;;;;5094299;28;20196;-81
2021/10/07 03:05:36;;;;;;;5.50;3.30;;;;;;;;;;5094036;28;20220;-82
2021/10/07 03:08:04;;;;;;;7.70;4.77;;;;;;;;;;5094270;28;20203;-81
2021/10/07 03:10:31;;;;;;;5.30;4.30;;;;;;;;;;5093856;28;20192;-81
2021/10/07 03:12:58;;;;;;;4.67;3.23;;;;;;;;;;5094472;28;20203;-81
2021/10/07 03:15:26;;;;;;;6.47;4.10;;;;;;;;;;5094232;28;20273;-81
2021/10/07 03:17:53;;;;;;;5.00;3.27;;;;;;;;;;5093805;28;20204;-81
2021/10/07 03:20:22;;;;;;;4.80;4.30;;;;;;;;;;5093874;28;20197;-81
2021/10/07 03:22:49;;;;;;;7.03;4.83;;;;;;;;;;5096144;28;20193;-82
2021/10/07 03:25:17;;;;;;;13.90;9.97;;;;;;;;;;5096019;28;20192;-80
2021/10/07 03:27:44;;;;;;;16.03;14.03;;;;;;;;;;5093668;28;20200;-81
2021/10/07 03:30:12;;;;;;;8.80;7.10;;;;;;;;;;5093711;28;20192;-81
2021/10/07 03:32:40;;;;;;;6.70;4.30;;;;;;;;;;5093723;28;20231;-81
2021/10/07 03:35:08;;;;;;;6.17;4.40;;;;;;;;;;5093927;28;20196;-80
2021/10/07 03:37:37;;;;;;;6.27;4.07;;;;;;;;;;5093730;28;20200;-81
2021/10/07 03:40:06;;;;;;;4.90;2.90;;;;;;;;;;5093506;28;20622;-81
2021/10/07 03:42:33;;;;;;;9.00;5.63;;;;;;;;;;5093351;28;20192;-81
2021/10/07 03:45:02;;;;;;;24.13;18.83;;;;;;;;;;5093715;28;20196;-81
2021/10/07 03:47:29;;;;;;;24.13;18.17;;;;;;;;;;5093582;28;20653;-81
2021/10/07 03:49:57;;;;;;;13.97;11.80;;;;;;;;;;5093368;28;20672;-81
2021/10/07 03:52:25;;;;;;;10.03;5.70;;;;;;;;;;5093553;28;20666;-81
2021/10/07 03:54:54;;;;;;;7.80;4.90;;;;;;;;;;5093129;28;20203;-81
2021/10/07 03:57:23;;;;;;;5.33;4.93;;;;;;;;;;5088071;28;20237;-80
2021/10/07 03:59:51;;;;;;;6.33;4.63;;;;;;;;;;5091020;28;20206;-81
2021/10/07 04:02:19;;;;;;;5.40;3.57;;;;;;;;;;5090465;28;20198;-81
2021/10/07 04:04:46;;;;;;;5.20;4.10;;;;;;;;;;5091633;28;20283;-81
2021/10/07 04:07:14;;;;;;;3.93;3.30;;;;;;;;;;5091909;28;20203;-82
2021/10/07 04:09:41;;;;;;;4.70;3.70;;;;;;;;;;5091709;28;20192;-81
2021/10/07 04:12:10;;;;;;;6.70;3.97;;;;;;;;;;5091463;28;20227;-81
2021/10/07 04:14:37;;;;;;;4.93;3.83;;;;;;;;;;5091737;28;20200;-81
2021/10/07 04:17:05;;;;;;;4.47;3.73;;;;;;;;;;5091757;28;20226;-81
2021/10/07 04:19:32;;;;;;;10.43;3.73;;;;;;;;;;5091580;28;20672;-81
2021/10/07 04:21:59;;;;;;;6.30;4.20;;;;;;;;;;5091719;28;20188;-81
2021/10/07 04:24:27;;;;;;;5.67;3.60;;;;;;;;;;5092660;28;20208;-82
2021/10/07 04:26:54;;;;;;;5.70;3.73;;;;;;;;;;5092783;28;20200;-81
2021/10/07 04:29:23;;;;;;;6.67;5.70;;;;;;;;;;5092452;28;20617;-81
2021/10/07 04:31:50;;;;;;;4.00;2.93;;;;;;;;;;5092504;28;20220;-81
2021/10/07 04:34:17;;;;;;;7.53;3.20;;;;;;;;;;5092034;28;20664;-81
2021/10/07 04:36:45;;;;;;;10.50;3.33;;;;;;;;;;5092493;28;20207;-81
2021/10/07 04:39:12;;;;;;;7.30;3.20;;;;;;;;;;5092384;28;20192;-81
2021/10/07 04:41:39;;;;;;;3.77;3.50;;;;;;;;;;5092548;28;20215;-81
2021/10/07 04:44:07;;;;;;;7.50;4.20;;;;;;;;;;5092329;28;20274;-81
2021/10/07 04:46:36;;;;;;;4.10;3.67;;;;;;;;;;5090481;28;20215;-81
2021/10/07 04:49:04;;;;;;;3.40;2.20;;;;;;;;;;5091130;28;20691;-81
2021/10/07 04:51:31;;;;;;;4.40;3.17;;;;;;;;;;5092170;28;20223;-81
2021/10/07 04:53:59;;;;;;;3.40;3.00;;;;;;;;;;5092244;28;20208;-82
2021/10/07 04:56:26;;;;;;;8.97;3.20;;;;;;;;;;5092279;28;20577;-81
2021/10/07 04:58:55;;;;;;;5.80;3.27;;;;;;;;;;5092305;28;20188;-81
2021/10/07 05:01:22;;;;;;;4.40;3.10;;;;;;;;;;5092190;28;20206;-81
2021/10/07 05:03:51;;;;;;;13.37;10.00;;;;;;;;;;5092109;28;20200;-82
2021/10/07 05:06:19;;;;;;;8.07;6.90;;;;;;;;;;5092295;28;20603;-81
2021/10/07 05:08:46;;;;;;;6.83;4.37;;;;;;;;;;5092138;28;20187;-81
2021/10/07 05:11:13;;;;;;;4.93;3.83;;;;;;;;;;5091561;28;20668;-81
2021/10/07 05:13:41;;;;;;;7.27;3.30;;;;;;;;;;5092453;28;20583;-81
2021/10/07 05:16:08;;;;;;;16.00;3.43;;;;;;;;;;5091868;28;20240;-81
2021/10/07 05:18:35;;;;;;;21.70;13.07;;;;;;;;;;5092093;28;20577;-81
2021/10/07 05:21:04;;;;;;;10.57;5.97;;;;;;;;;;5091581;28;20193;-81
2021/10/07 05:23:33;;;;;;;10.27;5.47;;;;;;;;;;5092035;28;20726;-81
2021/10/07 05:26:01;;;;;;;25.63;5.87;;;;;;;;;;5091719;28;20201;-81
2021/10/07 05:28:28;;;;;;;17.83;4.40;;;;;;;;;;5092297;28;20671;-82
2021/10/07 05:30:55;;;;;;;26.80;7.50;;;;;;;;;;5091541;28;20231;-81
2021/10/07 05:33:23;;;;;;;25.37;4.83;;;;;;;;;;5092104;28;20220;-81
2021/10/07 05:35:51;;;;;;;8.63;3.10;;;;;;;;;;5091884;28;20235;-81
2021/10/07 05:38:20;;;;;;;10.40;3.83;;;;;;;;;;5092104;28;20261;-81
2021/10/07 05:40:47;;;;;;;7.10;3.33;;;;;;;;;;5091396;28;20220;-81
2021/10/07 05:43:14;;;;;;;11.70;3.37;;;;;;;;;;5091796;28;20258;-81
2021/10/07 05:45:42;;;;;;;7.97;3.43;;;;;;;;;;5091778;28;20235;-81
2021/10/07 05:48:09;;;;;;;11.93;4.20;;;;;;;;;;5095743;28;20253;-79
2021/10/07 05:50:36;;;;;;;13.67;3.90;;;;;;;;;;5095570;28;20291;-79
2021/10/07 05:53:04;;;;;;;8.20;3.37;;;;;;;;;;5095731;28;20220;-79
2021/10/07 05:55:32;;;;;;;11.13;4.77;;;;;;;;;;5095935;28;20576;-80
2021/10/07 05:57:59;;;;;;;12.47;4.97;;;;;;;;;;5095668;28;20196;-80
2021/10/07 06:00:27;;;;;;;6.67;3.37;;;;;;;;;;5095400;28;20199;-79
2021/10/07 06:02:54;;;;;;;12.83;4.07;;;;;;;;;;5095492;28;20203;-79
2021/10/07 06:05:21;;;;;;;9.63;4.20;;;;;;;;;;5095429;28;20203;-80
2021/10/07 06:07:48;;;;;;;8.63;3.67;;;;;;;;;;5095561;28;20676;-79
2021/10/07 06:10:16;;;;;;;12.13;4.40;;;;;;;;;;5095671;28;20280;-80
2021/10/07 06:12:44;;;;;;;10.87;5.20;;;;;;;;;;5095400;28;20318;-79
2021/10/07 06:15:12;;;;;;;9.10;3.70;;;;;;;;;;5095478;28;20192;-79
2021/10/07 06:17:39;;;;;;;7.13;3.47;;;;;;;;;;5095715;28;20192;-79
2021/10/07 06:20:18;;;;;;;5.87;3.33;;;;;;;;;;5094985;28;20197;-79
2021/10/07 06:22:47;;;;;;;3.67;3.00;;;;;;;;;;5094233;28;20176;-79
2021/10/07 06:25:14;;;;;;;7.00;3.07;;;;;;;;;;5093533;28;20656;-79
2021/10/07 06:27:41;;;;;;;6.60;3.23;;;;;;;;;;5095178;28;20243;-79
2021/10/07 06:30:11;;;;;;;6.70;2.47;;;;;;;;;;5094700;28;20196;-79
2021/10/07 06:32:38;;;;;;;8.37;3.40;;;;;;;;;;5095076;28;20224;-79
2021/10/07 06:35:07;;;;;;;2.97;2.67;;;;;;;;;;5095140;28;20646;-79
2021/10/07 06:37:34;;;;;;;8.03;4.03;;;;;;;;;;5094958;28;20197;-79
2021/10/07 06:40:01;;;;;;;5.87;5.13;;;;;;;;;;5094551;28;20668;-79
2021/10/07 06:42:29;;;;;;;17.43;15.63;;;;;;;;;;5094914;28;20207;-79
2021/10/07 06:44:56;;;;;;;9.50;5.90;;;;;;;;;;5094662;28;20228;-79
2021/10/07 06:47:25;;;;;;;4.83;3.40;;;;;;;;;;5094605;28;20672;-78
2021/10/07 06:49:53;;;;;;;8.07;4.10;;;;;;;;;;5094557;28;20196;-79
2021/10/07 06:52:20;;;;;;;12.27;4.53;;;;;;;;;;5094621;28;20315;-79
2021/10/07 06:54:47;;;;;;;7.80;5.13;;;;;;;;;;5094833;28;20282;-79
2021/10/07 06:57:14;;;;;;;9.77;4.77;;;;;;;;;;5094355;28;20196;-79
2021/10/07 06:59:42;;;;;;;7.50;4.90;;;;;;;;;;5093128;28;20667;-79
2021/10/07 07:02:09;;;;;;;5.00;3.57;;;;;;;;;;5094461;28;20660;-79
2021/10/07 07:04:37;;;;;;;10.07;4.80;;;;;;;;;;5094659;28;20284;-79
2021/10/07 07:07:04;;;;;;;9.87;5.17;;;;;;;;;;5094203;28;20197;-79
2021/10/07 07:09:32;;;;;;;4.93;3.80;;;;;;;;;;5094172;28;20207;-79
2021/10/07 07:11:59;;;;;;;8.63;3.30;;;;;;;;;;5094197;28;20730;-78
2021/10/07 07:14:26;;;;;;;13.77;2.90;;;;;;;;;;5094075;28;20282;-79
2021/10/07 07:16:53;;;;;;;4.80;2.93;;;;;;;;;;5093997;28;20742;-80
2021/10/07 07:19:21;;;;;;;5.27;3.17;;;;;;;;;;5094328;28;20279;-79
2021/10/07 07:21:49;;;;;;;3.03;2.60;;;;;;;;;;5094478;28;20285;-79
2021/10/07 07:24:16;;;;;;;3.90;2.60;;;;;;;;;;5093870;28;20667;-79
2021/10/07 07:26:44;;;;;;;3.87;2.60;;;;;;;;;;5094126;28;20196;-79
2021/10/07 07:29:11;;;;;;;7.50;3.00;;;;;;;;;;5093799;28;20196;-79
2021/10/07 07:31:39;;;;;;;5.17;2.23;;;;;;;;;;5093910;28;20664;-79
2021/10/07 07:34:06;;;;;;;11.00;3.87;;;;;;;;;;5093851;28;20224;-79
2021/10/07 07:36:33;;;;;;;12.60;4.67;;;;;;;;;;5093718;28;20208;-79
2021/10/07 07:39:02;;;;;;;10.37;4.13;;;;;;;;;;5093569;28;20192;-79
2021/10/07 07:41:30;;;;;;;10.47;5.30;;;;;;;;;;5093674;28;20200;-79
2021/10/07 07:43:58;;;;;;;8.63;2.87;;;;;;;;;;5093582;28;20250;-79
2021/10/07 07:46:25;;;;;;;8.03;3.73;;;;;;;;;;5093591;28;20289;-79
2021/10/07 07:48:52;;;;;;;10.20;3.73;;;;;;;;;;5093731;28;20298;-78
2021/10/07 07:51:19;;;;;;;5.97;2.97;;;;;;;;;;5093417;28;20300;-79
2021/10/07 07:53:47;;;;;;;9.87;2.50;;;;;;;;;;5093273;28;20266;-79
2021/10/07 07:56:18;;;;;;;15.43;4.10;;;;;;;;;;5093526;28;20576;-79
2021/10/07 07:58:46;;;;;;;11.07;3.50;;;;;;;;;;5093447;28;20194;-79
2021/10/07 08:01:13;;;;;;;8.80;2.77;;;;;;;;;;5093336;28;20202;-79
2021/10/07 08:03:40;;;;;;;6.63;3.13;;;;;;;;;;5093243;28;20656;-79
2021/10/07 08:06:07;;;;;;;14.33;4.07;;;;;;;;;;5092968;28;20203;-79
2021/10/07 08:08:34;;;;;;;29.43;12.80;;;;;;;;;;5093137;28;20565;-79
2021/10/07 08:11:02;;;;;;;12.43;5.70;;;;;;;;;;5092697;28;20199;-79
2021/10/07 08:13:30;;;;;;;8.33;3.73;;;;;;;;;;5093026;28;20262;-79
2021/10/07 08:15:58;;;;;;;7.73;2.90;;;;;;;;;;5093329;28;20192;-79
2021/10/07 08:18:25;;;;;;;9.97;2.67;;;;;;;;;;5092796;28;20688;-79
2021/10/07 08:20:53;;;;;;;4.60;2.60;;;;;;;;;;5092984;28;20203;-79
2021/10/07 08:23:23;;;;;;;7.97;2.60;;;;;;;;;;5092999;28;20217;-79
2021/10/07 08:25:50;;;;;;;4.80;2.33;;;;;;;;;;5092797;28;20207;-79
2021/10/07 08:28:17;;;;;;;13.07;5.37;;;;;;;;;;5092892;28;20286;-79
2021/10/07 08:30:46;;;;;;;10.27;2.83;;;;;;;;;;5092878;28;20232;-79
2021/10/07 08:33:13;;;;;;;9.40;3.10;;;;;;;;;;5092875;28;20239;-79
2021/10/07 08:35:41;;;;;;;8.60;2.63;;;;;;;;;;5093092;28;20196;-79
2021/10/07 08:38:09;;;;;;;8.33;3.07;;;;;;;;;;5092505;28;20192;-79
2021/10/07 08:40:36;;;;;;;11.60;3.00;;;;;;;;;;5092597;28;20228;-79
2021/10/07 08:43:04;;;;;;;7.00;2.60;;;;;;;;;;5092444;28;20316;-79
2021/10/07 08:45:32;;;;;;;9.53;2.60;;;;;;;;;;5092736;28;20228;-79
2021/10/07 08:48:02;;;;;;;7.33;2.80;;;;;;;;;;5092839;28;20593;-79
2021/10/07 08:50:29;;;;;;;3.03;2.50;;;;;;;;;;5092814;28;20282;-79
2021/10/07 08:52:56;;;;;;;12.30;5.13;;;;;;;;;;5092895;28;20692;-79
2021/10/07 08:55:23;;;;;;;12.00;4.03;;;;;;;;;;5092210;28;20196;-79
2021/10/07 08:57:50;;;;;;;9.30;3.87;;;;;;;;;;5092276;28;20756;-79
2021/10/07 09:00:18;;;;;;;8.90;3.90;;;;;;;;;;5092318;28;20249;-79
2021/10/07 09:02:45;;;;;;;8.33;3.17;;;;;;;;;;5092272;28;20235;-79
2021/10/07 09:05:16;;;;;;;7.00;3.13;;;;;;;;;;5092409;28;20210;-79
2021/10/07 09:08:00;;;;;;;6.37;3.00;;;;;;;;;;5091995;28;20191;-79
2021/10/07 09:10:39;;;;;;;7.53;3.83;;;;;;;;;;5092164;28;20230;-79
2021/10/07 09:13:08;;;;;;;6.90;3.53;;;;;;;;;;5092168;28;20310;-79
2021/10/07 09:15:35;;;;;;;12.83;6.33;;;;;;;;;;5092339;28;20196;-79
2021/10/07 09:18:07;;;;;;;9.00;4.17;;;;;;;;;;5092064;28;20683;-79
2021/10/07 09:20:38;;;;;;;7.70;4.80;;;;;;;;;;5091876;28;20196;-79
2021/10/07 09:23:06;;;;;;;9.00;3.33;;;;;;;;;;5091730;28;20227;-79
2021/10/07 09:25:53;;;;;;;8.00;3.07;;;;;;;;;;5092150;28;20634;-79
2021/10/07 09:28:20;;;;;;;10.67;3.17;;;;;;;;;;5092296;28;20267;-79
2021/10/07 09:30:47;;;;;;;13.80;3.50;;;;;;;;;;5092105;28;20197;-79
2021/10/07 09:33:17;;;;;;;11.43;2.67;;;;;;;;;;5091811;28;20263;-79
2021/10/07 09:35:46;;;;;;;11.57;6.87;;;;;;;;;;5092162;28;20257;-79
2021/10/07 09:38:21;;;;;;;10.93;3.63;;;;;;;;;;5091754;28;20192;-79
2021/10/07 09:40:48;;;;;;;7.97;3.13;;;;;;;;;;5091860;28;20228;-79
2021/10/07 09:43:16;;;;;;;7.27;3.60;;;;;;;;;;5091517;28;20658;-79
2021/10/07 09:45:44;;;;;;;10.37;4.00;;;;;;;;;;5091746;28;20225;-79
2021/10/07 09:48:12;;;;;;;8.50;3.40;;;;;;;;;;5092089;28;20583;-79
2021/10/07 09:50:40;;;;;;;13.60;4.40;;;;;;;;;;5091713;28;20196;-79
2021/10/07 09:53:11;;;;;;;8.20;4.10;;;;;;;;;;5091736;28;20343;-79
2021/10/07 09:55:40;;;;;;;12.30;3.20;;;;;;;;;;5091690;28;20199;-79
2021/10/07 09:58:13;;;;;;;13.17;4.23;;;;;;;;;;5091786;28;20206;-79
2021/10/07 10:00:43;;;;;;;5.97;2.93;;;;;;;;;;5091581;28;20664;-79
2021/10/07 10:03:11;;;;;;;7.73;2.93;;;;;;;;;;5091711;28;20629;-79
2021/10/07 10:05:39;;;;;;;8.77;3.60;;;;;;;;;;5091257;28;20197;-79
2021/10/07 10:08:10;;;;;;;8.87;3.73;;;;;;;;;;5091629;28;20200;-79
2021/10/07 10:10:38;;;;;;;7.77;3.23;;;;;;;;;;5091575;28;20188;-79
2021/10/07 10:13:06;;;;;;;11.80;2.57;;;;;;;;;;5091524;28;20220;-79
2021/10/07 10:15:35;;;;;;;6.63;3.83;;;;;;;;;;5091343;28;20586;-79
2021/10/07 10:18:02;;;;;;;12.60;3.90;;;;;;;;;;5091657;28;20204;-79
2021/10/07 10:20:30;;;;;;;13.60;3.77;;;;;;;;;;5091398;28;20242;-79
2021/10/07 10:22:59;;;;;;;8.27;3.53;;;;;;;;;;5091443;28;20684;-79
2021/10/07 10:25:29;;;;;;;6.77;3.20;;;;;;;;;;5091313;28;20239;-79
2021/10/07 10:27:59;;;;;;;9.50;3.90;;;;;;;;;;5091425;28;20279;-79
2021/10/07 10:30:30;;;;;;;9.33;5.13;;;;;;;;;;5091658;28;20244;-79
2021/10/07 10:32:59;;;;;;;13.83;6.77;;;;;;;;;;5092820;28;20185;-79
2021/10/07 10:35:34;;;;;;;18.00;8.63;;;;;;;;;;5095243;28;20605;-79
2021/10/07 10:38:04;;;;;;;37.47;25.67;;;;;;;;;;5094706;28;20662;-79
2021/10/07 10:40:33;;;;;;;95.90;85.57;;;;;;;;;;5094891;28;20224;-79
2021/10/07 10:43:26;;;;;;;37.17;33.63;;;;;;;;;;5094748;28;20327;-79
2021/10/07 10:46:14;;;;;;;16.47;9.70;;;;;;;;;;5094654;28;20663;-80
2021/10/07 10:49:01;;;;;;;9.47;5.53;;;;;;;;;;5094685;28;20562;-79
2021/10/07 10:51:32;;;;;;;8.33;4.40;;;;;;;;;;5095134;28;20268;-80
2021/10/07 10:54:00;;;;;;;13.50;4.87;;;;;;;;;;5094375;28;20292;-79
2021/10/07 10:56:33;;;;;;;10.17;4.10;;;;;;;;;;5094777;28;20223;-79
2021/10/07 10:59:22;;;;;;;9.47;4.90;;;;;;;;;;5094374;28;20195;-80
2021/10/07 11:02:27;;;;;;;8.43;4.63;;;;;;;;;;5094544;28;20667;-80
2021/10/07 11:04:56;;;;;;;9.80;6.10;;;;;;;;;;5094964;28;20184;-81
2021/10/07 11:07:27;;;;;;;14.53;4.23;;;;;;;;;;5094435;28;20196;-80
2021/10/07 11:10:00;;;;;;;14.53;10.37;;;;;;;;;;5094278;28;20191;-80
2021/10/07 11:12:36;;;;;;;9.50;5.63;;;;;;;;;;5094601;28;20274;-80
2021/10/07 11:15:08;;;;;;;10.33;5.07;;;;;;;;;;5094273;28;20306;-80
2021/10/07 11:17:35;;;;;;;8.10;4.87;;;;;;;;;;5094309;28;20263;-81
2021/10/07 11:20:02;;;;;;;7.00;3.67;;;;;;;;;;5094056;28;20291;-81
2021/10/07 11:22:29;;;;;;;7.13;4.00;;;;;;;;;;5094120;28;20200;-80
2021/10/07 11:24:59;;;;;;;12.80;3.67;;;;;;;;;;5093709;28;20189;-80
2021/10/07 11:27:39;;;;;;;11.20;4.00;;;;;;;;;;5094056;28;20198;-80
2021/10/07 11:30:09;;;;;;;9.17;5.40;;;;;;;;;;5093832;28;20626;-80
2021/10/07 11:32:36;;;;;;;4.17;2.97;;;;;;;;;;5094295;28;20199;-80
2021/10/07 11:35:06;;;;;;;5.87;2.97;;;;;;;;;;5093411;28;20259;-80
2021/10/07 11:37:55;;;;;;;5.23;2.67;;;;;;;;;;5094440;28;20290;-80
2021/10/07 11:40:26;;;;;;;6.20;2.80;;;;;;;;;;5093606;28;20184;-81
2021/10/07 11:42:56;;;;;;;15.07;3.23;;;;;;;;;;5093588;28;20235;-80
2021/10/07 11:45:25;;;;;;;11.93;3.70;;;;;;;;;;5093155;28;20572;-80
2021/10/07 11:47:53;;;;;;;7.80;3.00;;;;;;;;;;5093683;28;20278;-80
2021/10/07 11:50:22;;;;;;;7.30;2.57;;;;;;;;;;5093467;28;20228;-79
2021/10/07 11:52:50;;;;;;;10.43;3.40;;;;;;;;;;5093623;28;20201;-79
2021/10/07 11:55:19;;;;;;;7.67;3.30;;;;;;;;;;5093315;28;20309;-80
2021/10/07 11:57:51;;;;;;;5.67;3.40;;;;;;;;;;5093547;28;20223;-80
2021/10/07 12:00:41;;;;;;;18.53;8.00;;;;;;;;;;5093573;28;20210;-79
2021/10/07 12:03:13;;;;;;;5.83;2.60;;;;;;;;;;5093406;28;20270;-80
2021/10/07 12:05:42;;;;;;;8.40;4.07;;;;;;;;;;5093276;28;20562;-79
2021/10/07 12:08:11;;;;;;;9.80;3.40;;;;;;;;;;5092900;28;20201;-79
2021/10/07 12:10:40;;;;;;;6.97;3.67;;;;;;;;;;5093097;28;20666;-79
2021/10/07 12:13:13;;;;;;;9.90;4.10;;;;;;;;;;5093602;28;20634;-79
2021/10/07 12:15:45;;;;;;;7.37;4.47;;;;;;;;;;5092856;28;20255;-80
2021/10/07 12:18:13;;;;;;;8.23;4.10;;;;;;;;;;5092864;28;20282;-79
2021/10/07 12:20:41;;;;;;;6.10;3.07;;;;;;;;;;5093078;28;20230;-80
2021/10/07 12:23:08;;;;;;;12.53;3.37;;;;;;;;;;5093004;28;20207;-79
2021/10/07 12:25:44;;;;;;;9.23;3.80;;;;;;;;;;5093048;28;20192;-79
2021/10/07 12:28:15;;;;;;;8.67;3.40;;;;;;;;;;5092677;28;20195;-80
2021/10/07 12:30:52;;;;;;;13.40;3.77;;;;;;;;;;5093002;28;20196;-79
2021/10/07 12:33:19;;;;;;;12.73;3.00;;;;;;;;;;5092702;28;20189;-79
2021/10/07 12:35:58;;;;;;;7.63;3.30;;;;;;;;;;5092824;28;20251;-79
2021/10/07 12:38:25;;;;;;;5.50;3.67;;;;;;;;;;5092759;28;20191;-79
2021/10/07 12:40:55;;;;;;;6.03;3.73;;;;;;;;;;5092595;28;20294;-79
2021/10/07 12:43:22;;;;;;;10.07;4.53;;;;;;;;;;5092386;28;20716;-79
2021/10/07 12:46:07;;;;;;;7.57;3.47;;;;;;;;;;5092461;28;20192;-79
2021/10/07 12:48:48;;;;;;;7.30;3.07;;;;;;;;;;5092424;28;20632;-79
2021/10/07 12:51:16;;;;;;;15.20;3.63;;;;;;;;;;5092773;28;20576;-79
2021/10/07 12:53:44;;;;;;;7.27;2.67;;;;;;;;;;5092324;28;20199;-79
2021/10/07 12:56:13;;;;;;;11.70;3.53;;;;;;;;;;5092609;28;20278;-79
2021/10/07 12:58:57;;;;;;;8.43;3.10;;;;;;;;;;5092435;28;20220;-79
2021/10/07 13:01:27;;;;;;;11.70;4.90;;;;;;;;;;5092487;28;20204;-79
2021/10/07 13:04:15;;;;;;;11.27;4.37;;;;;;;;;;5092193;28;20236;-79
2021/10/07 13:06:43;;;;;;;15.07;6.50;;;;;;;;;;5092292;28;20188;-79
2021/10/07 13:09:10;;;;;;;8.90;4.87;;;;;;;;;;5091955;28;20208;-79
2021/10/07 13:11:37;;;;;;;11.23;4.60;;;;;;;;;;5092549;28;20199;-79
2021/10/07 13:14:05;;;;;;;8.33;4.10;;;;;;;;;;5091889;28;20224;-78
2021/10/07 13:16:34;;;;;;;13.87;4.83;;;;;;;;;;5092187;28;20271;-79
2021/10/07 13:19:02;;;;;;;8.67;4.53;;;;;;;;;;5092024;28;20355;-79
2021/10/07 13:21:30;;;;;;;10.80;7.47;;;;;;;;;;5091911;28;20206;-80
2021/10/07 13:24:01;;;;;;;14.17;10.87;;;;;;;;;;5091901;28;20286;-79
2021/10/07 13:26:34;;;;;;;13.50;10.43;;;;;;;;;;5092064;28;20640;-79
2021/10/07 13:29:01;;;;;;;9.13;7.10;;;;;;;;;;5092197;28;20188;-79
2021/10/07 13:31:28;;;;;;;10.47;9.37;;;;;;;;;;5091759;28;20199;-79
2021/10/07 13:33:57;;;;;;;10.03;6.57;;;;;;;;;;5091859;28;20196;-79
2021/10/07 13:36:25;;;;;;;12.70;6.07;;;;;;;;;;5091796;28;20239;-80
2021/10/07 13:38:52;;;;;;;9.00;6.60;;;;;;;;;;5092231;28;20215;-80
2021/10/07 13:41:20;;;;;;;8.57;5.60;;;;;;;;;;5091553;28;20628;-80
2021/10/07 13:43:47;;;;;;;8.73;5.07;;;;;;;;;;5091707;28;20326;-80
2021/10/07 13:46:15;;;;;;;12.47;7.63;;;;;;;;;;5091709;28;20195;-80
2021/10/07 13:48:43;;;;;;;8.70;6.70;;;;;;;;;;5091966;28;20231;-79
2021/10/07 13:51:12;;;;;;;12.93;11.17;;;;;;;;;;5091969;28;20197;-79
2021/10/07 13:53:40;;;;;;;12.93;9.13;;;;;;;;;;5091762;28;20214;-79
2021/10/07 13:56:08;;;;;;;16.57;9.47;;;;;;;;;;5091551;28;20306;-80
2021/10/07 13:58:36;;;;;;;19.77;14.47;;;;;;;;;;5091569;28;20196;-79
2021/10/07 14:01:03;;;;;;;11.60;9.33;;;;;;;;;;5091805;28;20196;-79
2021/10/07 14:03:31;;;;;;;8.23;5.77;;;;;;;;;;5092010;28;20607;-80
2021/10/07 14:05:58;;;;;;;10.80;5.50;;;;;;;;;;5091520;28;20231;-79
2021/10/07 14:08:26;;;;;;;5.23;4.23;;;;;;;;;;5094033;28;20246;-79
2021/10/07 14:10:55;;;;;;;9.63;5.40;;;;;;;;;;5095444;28;20199;-79
2021/10/07 14:13:22;;;;;;;17.83;12.97;;;;;;;;;;5095849;28;20210;-80
2021/10/07 14:15:49;;;;;;;73.80;41.13;;;;;;;;;;5095226;28;20315;-79
2021/10/07 14:18:16;;;;;;;85.33;52.50;;;;;;;;;;5095667;28;20204;-79
2021/10/07 14:20:44;;;;;;;23.60;16.23;;;;;;;;;;5095336;28;20611;-79
2021/10/07 14:23:11;;;;;;;26.33;17.47;;;;;;;;;;5094922;28;20578;-79
2021/10/07 14:25:40;;;;;;;14.40;9.23;;;;;;;;;;5095135;28;20196;-79
2021/10/07 14:28:07;;;;;;;11.77;8.00;;;;;;;;;;5095102;28;20691;-80
2021/10/07 14:30:35;;;;;;;38.30;21.53;;;;;;;;;;5094794;28;20236;-79
2021/10/07 14:33:03;;;;;;;19.53;12.60;;;;;;;;;;5095062;28;20699;-79
2021/10/07 14:35:30;;;;;;;20.77;11.23;;;;;;;;;;5094906;28;20227;-79
2021/10/07 14:37:58;;;;;;;24.37;21.10;;;;;;;;;;5095011;28;20196;-79
2021/10/07 14:40:26;;;;;;;11.63;9.90;;;;;;;;;;5095163;28;20192;-80
2021/10/07 14:42:54;;;;;;;19.43;13.53;;;;;;;;;;5094712;28;20229;-79
2021/10/07 14:45:22;;;;;;;15.40;13.00;;;;;;;;;;5094664;28;20199;-79
2021/10/07 14:47:50;;;;;;;12.33;7.27;;;;;;;;;;5094865;28;20758;-79
2021/10/07 14:50:18;;;;;;;7.83;5.77;;;;;;;;;;5094626;28;20229;-79
2021/10/07 14:52:45;;;;;;;14.60;7.90;;;;;;;;;;5094510;28;20196;-79